Portada
METAR-TAF:

METAR-TAF

Aeroports :

Singapur, Singapur

latitud: 01-25-08N, longitud: 103-51-57E, altitud: 11 m

Observació

L'informe es va fer fa 1 hora i 8 minuts, a les 04:00 UTC
Vent 5 kt del Nord, variant entre Nord-Oest i Nord-Est
Temperatura 27°C
Humitat 79%
Pressió 1012 hPa
Visibilitat 10 km o més
Escasses núvols a una alçada de 1500 ft
Núvols disperses a una alçada de 16000 ft
Cel ennuvolat a una alçada de 27000 ft

METAR: WSSL 150400Z 36005KT 320V040 9999 FEW015 SCT160 BKN270 27/23 Q1012

Hora: 13:08 (05:08 UTC)

Pronòstic

L'informe es va fer fa 38 minuts, a les 04:30 UTC
Pronòstic vàlid del 15 a les 04 UTC al 16 a les 06 UTC
Vent 7 kt del Nord-Est
Visibilitat 10 km o més
Escasses núvols a una alçada de 1500 ft
Núvols disperses a una alçada de 2000 ft

TAF: WSSL 150430Z 1504/1606 04007KT 9999 FEW015 SCT020

Observacions i pronòstics meteorològics de més de 4000 aeroports (METAR i TAF).

Les estacions disponibles són els punts grocs i vermells al mapa.

Posi el ratolí al punt desitjat per veure el nom de l'estació.

Feu clic per veure les observacions i els pronòstics meteorològics.

Per canviar el mapa: feu clic els botons verds amb una creu de color negre per apropar; al botó verd amb un guió per allunyar la imatge; o en les fletxes verdes per a mapes adjacents.


METAR-TAF: